sensor_id;sensor_type;location;lat;lon;timestamp;temperature;humidity
10304;DHT22;5197;48.152;8.590;2022-09-21T00:01:21;8.10;11.90
10304;DHT22;5197;48.152;8.590;2022-09-21T00:03:54;8.10;11.50
10304;DHT22;5197;48.152;8.590;2022-09-21T00:06:23;8.00;11.30
10304;DHT22;5197;48.152;8.590;2022-09-21T00:08:51;8.00;11.70
10304;DHT22;5197;48.152;8.590;2022-09-21T00:11:21;8.40;12.00
10304;DHT22;5197;48.152;8.590;2022-09-21T00:13:56;7.90;11.70
10304;DHT22;5197;48.152;8.590;2022-09-21T00:16:23;7.80;11.80
10304;DHT22;5197;48.152;8.590;2022-09-21T00:18:51;7.60;12.00
10304;DHT22;5197;48.152;8.590;2022-09-21T00:21:18;7.60;12.50
10304;DHT22;5197;48.152;8.590;2022-09-21T00:23:45;7.60;12.60
10304;DHT22;5197;48.152;8.590;2022-09-21T00:26:23;7.60;12.70
10304;DHT22;5197;48.152;8.590;2022-09-21T00:28:55;7.60;12.70
10304;DHT22;5197;48.152;8.590;2022-09-21T00:31:22;7.60;12.80
10304;DHT22;5197;48.152;8.590;2022-09-21T00:33:50;7.60;12.80
10304;DHT22;5197;48.152;8.590;2022-09-21T00:36:20;7.60;12.80
10304;DHT22;5197;48.152;8.590;2022-09-21T00:38:52;7.60;13.20
10304;DHT22;5197;48.152;8.590;2022-09-21T00:41:19;7.60;13.30
10304;DHT22;5197;48.152;8.590;2022-09-21T00:44:34;7.60;13.40
10304;DHT22;5197;48.152;8.590;2022-09-21T00:46:37;7.60;13.10
10304;DHT22;5197;48.152;8.590;2022-09-21T00:49:06;7.50;13.30
10304;DHT22;5197;48.152;8.590;2022-09-21T00:51:34;7.50;13.60
10304;DHT22;5197;48.152;8.590;2022-09-21T00:54:05;7.50;14.00
10304;DHT22;5197;48.152;8.590;2022-09-21T00:56:33;7.40;14.10
10304;DHT22;5197;48.152;8.590;2022-09-21T00:59:02;7.40;14.10
10304;DHT22;5197;48.152;8.590;2022-09-21T01:01:31;7.30;14.40
10304;DHT22;5197;48.152;8.590;2022-09-21T01:03:58;7.30;14.70
10304;DHT22;5197;48.152;8.590;2022-09-21T01:06:26;7.40;15.00
10304;DHT22;5197;48.152;8.590;2022-09-21T01:08:55;7.40;15.10
10304;DHT22;5197;48.152;8.590;2022-09-21T01:11:28;7.40;14.90
10304;DHT22;5197;48.152;8.590;2022-09-21T01:17:10;7.40;14.90
10304;DHT22;5197;48.152;8.590;2022-09-21T01:30:42;7.40;14.70
10304;DHT22;5197;48.152;8.590;2022-09-21T01:33:20;7.30;14.90
10304;DHT22;5197;48.152;8.590;2022-09-21T01:35:55;7.20;14.80
10304;DHT22;5197;48.152;8.590;2022-09-21T01:38:34;7.20;15.10
10304;DHT22;5197;48.152;8.590;2022-09-21T01:41:05;7.20;15.20
10304;DHT22;5197;48.152;8.590;2022-09-21T01:43:36;7.10;14.90
10304;DHT22;5197;48.152;8.590;2022-09-21T01:46:08;7.00;15.00
10304;DHT22;5197;48.152;8.590;2022-09-21T01:48:39;6.90;15.20
10304;DHT22;5197;48.152;8.590;2022-09-21T01:51:10;6.80;15.20
10304;DHT22;5197;48.152;8.590;2022-09-21T01:56:12;6.70;15.70
10304;DHT22;5197;48.152;8.590;2022-09-21T01:58:46;6.70;16.00
10304;DHT22;5197;48.152;8.590;2022-09-21T02:01:18;6.60;15.90
10304;DHT22;5197;48.152;8.590;2022-09-21T02:03:53;6.60;16.20
10304;DHT22;5197;48.152;8.590;2022-09-21T02:06:24;6.50;16.30
10304;DHT22;5197;48.152;8.590;2022-09-21T02:08:54;6.50;16.50
10304;DHT22;5197;48.152;8.590;2022-09-21T02:11:21;6.50;16.90
10304;DHT22;5197;48.152;8.590;2022-09-21T02:13:51;6.50;17.30
10304;DHT22;5197;48.152;8.590;2022-09-21T02:16:36;6.50;17.80
10304;DHT22;5197;48.152;8.590;2022-09-21T02:21:43;6.30;17.30
10304;DHT22;5197;48.152;8.590;2022-09-21T02:26:59;6.20;17.40
10304;DHT22;5197;48.152;8.590;2022-09-21T02:29:56;6.10;17.70
10304;DHT22;5197;48.152;8.590;2022-09-21T02:38:34;6.00;17.80
10304;DHT22;5197;48.152;8.590;2022-09-21T02:41:23;6.00;17.90
10304;DHT22;5197;48.152;8.590;2022-09-21T02:44:09;6.00;18.10
10304;DHT22;5197;48.152;8.590;2022-09-21T02:46:41;6.00;17.80
10304;DHT22;5197;48.152;8.590;2022-09-21T02:49:15;5.90;18.20
10304;DHT22;5197;48.152;8.590;2022-09-21T02:51:51;5.90;18.70
10304;DHT22;5197;48.152;8.590;2022-09-21T02:54:23;5.90;18.70
10304;DHT22;5197;48.152;8.590;2022-09-21T02:56:51;5.80;18.80
10304;DHT22;5197;48.152;8.590;2022-09-21T02:59:19;5.90;18.90
10304;DHT22;5197;48.152;8.590;2022-09-21T03:01:50;5.90;18.90
10304;DHT22;5197;48.152;8.590;2022-09-21T03:04:17;5.80;18.80
10304;DHT22;5197;48.152;8.590;2022-09-21T03:06:44;5.70;18.80
10304;DHT22;5197;48.152;8.590;2022-09-21T03:09:11;5.70;18.80
10304;DHT22;5197;48.152;8.590;2022-09-21T03:11:38;5.70;18.80
10304;DHT22;5197;48.152;8.590;2022-09-21T03:14:08;5.70;18.80
10304;DHT22;5197;48.152;8.590;2022-09-21T03:16:35;5.70;18.80
10304;DHT22;5197;48.152;8.590;2022-09-21T03:19:03;5.70;18.80
10304;DHT22;5197;48.152;8.590;2022-09-21T03:21:30;5.70;18.80
10304;DHT22;5197;48.152;8.590;2022-09-21T03:23:57;5.70;18.80
10304;DHT22;5197;48.152;8.590;2022-09-21T03:26:24;5.80;18.90
10304;DHT22;5197;48.152;8.590;2022-09-21T03:28:51;5.70;18.80
10304;DHT22;5197;48.152;8.590;2022-09-21T03:31:20;5.00;18.30
10304;DHT22;5197;48.152;8.590;2022-09-21T03:33:48;5.70;18.80
10304;DHT22;5197;48.152;8.590;2022-09-21T03:36:15;5.60;18.70
10304;DHT22;5197;48.152;8.590;2022-09-21T03:38:42;5.60;18.80
10304;DHT22;5197;48.152;8.590;2022-09-21T03:41:10;5.60;18.70
10304;DHT22;5197;48.152;8.590;2022-09-21T03:43:37;5.60;18.80
10304;DHT22;5197;48.152;8.590;2022-09-21T03:46:03;5.60;18.80
10304;DHT22;5197;48.152;8.590;2022-09-21T03:48:30;5.50;18.70
10304;DHT22;5197;48.152;8.590;2022-09-21T03:50:58;5.50;18.70
10304;DHT22;5197;48.152;8.590;2022-09-21T03:53:25;5.50;18.70
10304;DHT22;5197;48.152;8.590;2022-09-21T03:55:52;5.50;18.70
10304;DHT22;5197;48.152;8.590;2022-09-21T03:58:19;5.40;18.70
10304;DHT22;5197;48.152;8.590;2022-09-21T04:00:47;5.40;18.60
10304;DHT22;5197;48.152;8.590;2022-09-21T04:03:14;5.30;18.60
10304;DHT22;5197;48.152;8.590;2022-09-21T04:05:41;5.30;18.60
10304;DHT22;5197;48.152;8.590;2022-09-21T04:08:08;5.20;19.20
10304;DHT22;5197;48.152;8.590;2022-09-21T04:10:35;5.20;19.60
10304;DHT22;5197;48.152;8.590;2022-09-21T04:13:02;5.20;19.80
10304;DHT22;5197;48.152;8.590;2022-09-21T04:15:30;5.20;20.00
10304;DHT22;5197;48.152;8.590;2022-09-21T04:17:57;5.10;20.10
10304;DHT22;5197;48.152;8.590;2022-09-21T04:20:25;5.10;20.20
10304;DHT22;5197;48.152;8.590;2022-09-21T04:22:52;5.10;20.30
10304;DHT22;5197;48.152;8.590;2022-09-21T04:25:19;5.10;20.30
10304;DHT22;5197;48.152;8.590;2022-09-21T04:27:46;5.10;20.40
10304;DHT22;5197;48.152;8.590;2022-09-21T04:30:15;5.10;20.60
10304;DHT22;5197;48.152;8.590;2022-09-21T04:32:43;5.10;20.90
10304;DHT22;5197;48.152;8.590;2022-09-21T04:35:10;5.10;21.40
10304;DHT22;5197;48.152;8.590;2022-09-21T04:37:37;5.10;21.50
10304;DHT22;5197;48.152;8.590;2022-09-21T04:40:04;5.20;21.70
10304;DHT22;5197;48.152;8.590;2022-09-21T04:42:32;5.10;21.60
10304;DHT22;5197;48.152;8.590;2022-09-21T04:44:59;5.10;21.60
10304;DHT22;5197;48.152;8.590;2022-09-21T04:47:29;5.10;21.70
10304;DHT22;5197;48.152;8.590;2022-09-21T04:49:56;5.00;21.50
10304;DHT22;5197;48.152;8.590;2022-09-21T04:52:23;5.00;21.50
10304;DHT22;5197;48.152;8.590;2022-09-21T04:54:50;5.00;21.60
10304;DHT22;5197;48.152;8.590;2022-09-21T04:57:17;4.90;21.50
10304;DHT22;5197;48.152;8.590;2022-09-21T04:59:44;4.90;21.90
10304;DHT22;5197;48.152;8.590;2022-09-21T05:02:11;4.90;22.00
10304;DHT22;5197;48.152;8.590;2022-09-21T05:04:38;4.90;22.90
10304;DHT22;5197;48.152;8.590;2022-09-21T05:07:05;4.90;21.80
10304;DHT22;5197;48.152;8.590;2022-09-21T05:09:32;4.90;21.70
10304;DHT22;5197;48.152;8.590;2022-09-21T05:12:17;4.80;21.50
10304;DHT22;5197;48.152;8.590;2022-09-21T05:14:44;4.70;21.20
10304;DHT22;5197;48.152;8.590;2022-09-21T05:17:11;4.70;21.30
10304;DHT22;5197;48.152;8.590;2022-09-21T05:19:39;4.60;21.50
10304;DHT22;5197;48.152;8.590;2022-09-21T05:22:06;4.00;21.30
10304;DHT22;5197;48.152;8.590;2022-09-21T05:24:33;4.60;21.60
10304;DHT22;5197;48.152;8.590;2022-09-21T05:27:00;4.60;21.60
10304;DHT22;5197;48.152;8.590;2022-09-21T05:29:28;4.60;21.80
10304;DHT22;5197;48.152;8.590;2022-09-21T05:32:01;4.60;21.60
10304;DHT22;5197;48.152;8.590;2022-09-21T05:39:37;4.40;21.70
10304;DHT22;5197;48.152;8.590;2022-09-21T05:42:04;4.30;22.00
10304;DHT22;5197;48.152;8.590;2022-09-21T05:44:32;4.30;22.20
10304;DHT22;5197;48.152;8.590;2022-09-21T06:01:03;4.20;23.30
10304;DHT22;5197;48.152;8.590;2022-09-21T06:03:33;4.20;23.60
10304;DHT22;5197;48.152;8.590;2022-09-21T06:06:02;4.30;24.10
10304;DHT22;5197;48.152;8.590;2022-09-21T06:08:29;4.30;24.30
10304;DHT22;5197;48.152;8.590;2022-09-21T06:10:56;4.40;24.40
10304;DHT22;5197;48.152;8.590;2022-09-21T06:13:23;4.40;24.60
10304;DHT22;5197;48.152;8.590;2022-09-21T06:15:50;4.50;25.00
10304;DHT22;5197;48.152;8.590;2022-09-21T06:18:17;4.50;25.20
10304;DHT22;5197;48.152;8.590;2022-09-21T06:20:44;4.60;25.40
10304;DHT22;5197;48.152;8.590;2022-09-21T06:23:13;4.70;25.30
10304;DHT22;5197;48.152;8.590;2022-09-21T06:25:40;4.80;25.40
10304;DHT22;5197;48.152;8.590;2022-09-21T06:28:09;4.80;25.50
10304;DHT22;5197;48.152;8.590;2022-09-21T06:30:37;4.90;25.80
10304;DHT22;5197;48.152;8.590;2022-09-21T06:33:06;5.00;26.10
10304;DHT22;5197;48.152;8.590;2022-09-21T06:35:34;5.10;26.20
10304;DHT22;5197;48.152;8.590;2022-09-21T06:38:06;5.10;26.30
10304;DHT22;5197;48.152;8.590;2022-09-21T06:40:35;5.20;26.90
10304;DHT22;5197;48.152;8.590;2022-09-21T06:43:04;5.20;27.20
10304;DHT22;5197;48.152;8.590;2022-09-21T06:45:31;5.30;27.60
10304;DHT22;5197;48.152;8.590;2022-09-21T06:47:58;5.40;28.40
10304;DHT22;5197;48.152;8.590;2022-09-21T06:50:25;5.60;29.00
10304;DHT22;5197;48.152;8.590;2022-09-21T06:52:52;5.70;29.70
10304;DHT22;5197;48.152;8.590;2022-09-21T06:55:19;5.80;30.00
10304;DHT22;5197;48.152;8.590;2022-09-21T06:57:46;6.00;31.20
10304;DHT22;5197;48.152;8.590;2022-09-21T07:00:13;6.20;32.30
10304;DHT22;5197;48.152;8.590;2022-09-21T07:02:44;6.40;33.50
10304;DHT22;5197;48.152;8.590;2022-09-21T07:05:11;6.60;34.00
10304;DHT22;5197;48.152;8.590;2022-09-21T07:07:39;6.80;35.20
10304;DHT22;5197;48.152;8.590;2022-09-21T07:10:07;7.00;36.60
10304;DHT22;5197;48.152;8.590;2022-09-21T07:12:41;7.30;38.60
10304;DHT22;5197;48.152;8.590;2022-09-21T07:15:09;7.70;39.20
10304;DHT22;5197;48.152;8.590;2022-09-21T07:17:38;8.20;38.90
10304;DHT22;5197;48.152;8.590;2022-09-21T07:20:06;8.50;39.20
10304;DHT22;5197;48.152;8.590;2022-09-21T07:22:34;8.90;36.80
10304;DHT22;5197;48.152;8.590;2022-09-21T07:25:03;9.00;33.00
10304;DHT22;5197;48.152;8.590;2022-09-21T07:27:32;9.10;30.60
10304;DHT22;5197;48.152;8.590;2022-09-21T07:29:59;9.00;29.10
10304;DHT22;5197;48.152;8.590;2022-09-21T07:32:26;8.90;27.90
10304;DHT22;5197;48.152;8.590;2022-09-21T07:34:53;8.90;28.80
10304;DHT22;5197;48.152;8.590;2022-09-21T07:37:24;9.10;29.60
10304;DHT22;5197;48.152;8.590;2022-09-21T07:39:51;9.40;29.80
10304;DHT22;5197;48.152;8.590;2022-09-21T07:42:20;9.90;29.80
10304;DHT22;5197;48.152;8.590;2022-09-21T07:44:48;10.50;28.90
10304;DHT22;5197;48.152;8.590;2022-09-21T07:47:16;11.00;28.10
10304;DHT22;5197;48.152;8.590;2022-09-21T07:49:44;11.70;27.90
10304;DHT22;5197;48.152;8.590;2022-09-21T07:52:12;12.30;24.80
10304;DHT22;5197;48.152;8.590;2022-09-21T07:54:41;12.70;22.60
10304;DHT22;5197;48.152;8.590;2022-09-21T07:57:08;13.20;21.60
10304;DHT22;5197;48.152;8.590;2022-09-21T07:59:53;13.60;17.70
10304;DHT22;5197;48.152;8.590;2022-09-21T08:02:23;14.00;16.60
10304;DHT22;5197;48.152;8.590;2022-09-21T08:04:50;14.40;14.20
10304;DHT22;5197;48.152;8.590;2022-09-21T08:07:17;14.60;10.30
10304;DHT22;5197;48.152;8.590;2022-09-21T08:09:44;14.60;8.40
10304;DHT22;5197;48.152;8.590;2022-09-21T08:12:15;14.70;8.10
10304;DHT22;5197;48.152;8.590;2022-09-21T08:14:44;15.10;6.20
10304;DHT22;5197;48.152;8.590;2022-09-21T08:17:11;14.90;1.80
10304;DHT22;5197;48.152;8.590;2022-09-21T08:19:38;14.90;2.70
10304;DHT22;5197;48.152;8.590;2022-09-21T08:22:06;14.90;1.90
10304;DHT22;5197;48.152;8.590;2022-09-21T08:24:33;14.90;1.00
10304;DHT22;5197;48.152;8.590;2022-09-21T08:27:00;15.00;1.00
10304;DHT22;5197;48.152;8.590;2022-09-21T08:29:27;14.60;1.00
10304;DHT22;5197;48.152;8.590;2022-09-21T08:31:55;14.80;1.00
10304;DHT22;5197;48.152;8.590;2022-09-21T08:34:23;14.60;1.00
10304;DHT22;5197;48.152;8.590;2022-09-21T08:36:52;14.80;1.00
10304;DHT22;5197;48.152;8.590;2022-09-21T08:39:21;14.90;1.00
10304;DHT22;5197;48.152;8.590;2022-09-21T08:44:37;15.50;1.00
10304;DHT22;5197;48.152;8.590;2022-09-21T08:47:10;15.80;1.00
10304;DHT22;5197;48.152;8.590;2022-09-21T08:49:41;16.10;1.00
10304;DHT22;5197;48.152;8.590;2022-09-21T08:52:13;16.10;1.00
10304;DHT22;5197;48.152;8.590;2022-09-21T08:57:28;14.80;1.00
10304;DHT22;5197;48.152;8.590;2022-09-21T08:59:56;14.00;1.00
10304;DHT22;5197;48.152;8.590;2022-09-21T09:03:27;13.60;1.00
10304;DHT22;5197;48.152;8.590;2022-09-21T09:06:04;13.20;1.00
10304;DHT22;5197;48.152;8.590;2022-09-21T09:14:18;12.50;1.00
10304;DHT22;5197;48.152;8.590;2022-09-21T09:22:18;11.90;1.00
10304;DHT22;5197;48.152;8.590;2022-09-21T09:24:51;11.70;1.00
10304;DHT22;5197;48.152;8.590;2022-09-21T09:27:32;11.80;1.00
10304;DHT22;5197;48.152;8.590;2022-09-21T09:35:50;11.90;1.00
10304;DHT22;5197;48.152;8.590;2022-09-21T09:38:28;11.90;1.00
10304;DHT22;5197;48.152;8.590;2022-09-21T09:41:20;11.90;1.00
10304;DHT22;5197;48.152;8.590;2022-09-21T09:52:24;12.10;1.00
10304;DHT22;5197;48.152;8.590;2022-09-21T09:54:51;12.30;1.00
10304;DHT22;5197;48.152;8.590;2022-09-21T09:57:27;12.50;1.00
10304;DHT22;5197;48.152;8.590;2022-09-21T10:00:06;12.70;1.00
10304;DHT22;5197;48.152;8.590;2022-09-21T10:02:49;12.90;1.00
10304;DHT22;5197;48.152;8.590;2022-09-21T10:07:49;13.00;1.00
10304;DHT22;5197;48.152;8.590;2022-09-21T10:10:35;13.20;1.00
10304;DHT22;5197;48.152;8.590;2022-09-21T10:13:24;13.30;1.00
10304;DHT22;5197;48.152;8.590;2022-09-21T10:15:59;13.10;1.00
10304;DHT22;5197;48.152;8.590;2022-09-21T10:24:00;13.20;1.00
10304;DHT22;5197;48.152;8.590;2022-09-21T10:26:46;13.20;1.00
10304;DHT22;5197;48.152;8.590;2022-09-21T10:32:04;13.20;1.00
10304;DHT22;5197;48.152;8.590;2022-09-21T10:34:40;13.10;1.00
10304;DHT22;5197;48.152;8.590;2022-09-21T10:37:35;13.00;1.00
10304;DHT22;5197;48.152;8.590;2022-09-21T10:42:58;12.80;1.00
10304;DHT22;5197;48.152;8.590;2022-09-21T10:45:28;12.90;1.00
10304;DHT22;5197;48.152;8.590;2022-09-21T10:48:12;13.20;1.00
10304;DHT22;5197;48.152;8.590;2022-09-21T10:50:44;13.40;1.00
10304;DHT22;5197;48.152;8.590;2022-09-21T10:59:12;13.80;1.00
10304;DHT22;5197;48.152;8.590;2022-09-21T11:01:47;14.00;1.00
10304;DHT22;5197;48.152;8.590;2022-09-21T11:04:22;14.00;1.00
10304;DHT22;5197;48.152;8.590;2022-09-21T11:07:04;14.00;1.00
10304;DHT22;5197;48.152;8.590;2022-09-21T11:18:21;14.30;1.00
10304;DHT22;5197;48.152;8.590;2022-09-21T11:20:57;14.50;1.00
10304;DHT22;5197;48.152;8.590;2022-09-21T11:26:26;14.70;1.00
10304;DHT22;5197;48.152;8.590;2022-09-21T11:29:08;14.80;1.00
10304;DHT22;5197;48.152;8.590;2022-09-21T11:34:45;14.70;1.00
10304;DHT22;5197;48.152;8.590;2022-09-21T11:45:40;14.80;1.00
10304;DHT22;5197;48.152;8.590;2022-09-21T11:51:00;14.30;1.00
10304;DHT22;5197;48.152;8.590;2022-09-21T11:56:28;14.50;1.00
10304;DHT22;5197;48.152;8.590;2022-09-21T12:12:59;14.90;1.00
10304;DHT22;5197;48.152;8.590;2022-09-21T12:18:11;15.00;1.00
10304;DHT22;5197;48.152;8.590;2022-09-21T12:20:48;15.10;1.00
10304;DHT22;5197;48.152;8.590;2022-09-21T12:23:20;15.10;1.00
10304;DHT22;5197;48.152;8.590;2022-09-21T12:25:51;15.00;1.00
10304;DHT22;5197;48.152;8.590;2022-09-21T12:28:24;15.20;1.00
10304;DHT22;5197;48.152;8.590;2022-09-21T12:31:01;15.40;1.00
10304;DHT22;5197;48.152;8.590;2022-09-21T12:33:44;15.60;1.00
10304;DHT22;5197;48.152;8.590;2022-09-21T12:36:43;15.70;1.00
10304;DHT22;5197;48.152;8.590;2022-09-21T12:44:40;15.70;1.00
10304;DHT22;5197;48.152;8.590;2022-09-21T12:47:28;15.50;1.00
10304;DHT22;5197;48.152;8.590;2022-09-21T12:50:15;15.00;1.00
10304;DHT22;5197;48.152;8.590;2022-09-21T12:52:45;15.00;1.00
10304;DHT22;5197;48.152;8.590;2022-09-21T13:12:57;14.80;1.00
10304;DHT22;5197;48.152;8.590;2022-09-21T13:15:46;15.00;1.00
10304;DHT22;5197;48.152;8.590;2022-09-21T13:18:21;15.40;1.00
10304;DHT22;5197;48.152;8.590;2022-09-21T13:20:52;15.60;1.00
10304;DHT22;5197;48.152;8.590;2022-09-21T13:23:37;15.90;1.00
10304;DHT22;5197;48.152;8.590;2022-09-21T13:26:12;16.10;1.00
10304;DHT22;5197;48.152;8.590;2022-09-21T13:32:00;15.90;1.00
10304;DHT22;5197;48.152;8.590;2022-09-21T13:34:35;15.70;1.00
10304;DHT22;5197;48.152;8.590;2022-09-21T13:47:43;15.90;1.00
10304;DHT22;5197;48.152;8.590;2022-09-21T13:50:27;16.10;1.00
10304;DHT22;5197;48.152;8.590;2022-09-21T13:52:58;16.20;1.00
10304;DHT22;5197;48.152;8.590;2022-09-21T13:55:38;16.00;1.00
10304;DHT22;5197;48.152;8.590;2022-09-21T14:00:51;16.00;1.00
10304;DHT22;5197;48.152;8.590;2022-09-21T14:03:21;16.10;1.00
10304;DHT22;5197;48.152;8.590;2022-09-21T14:05:52;16.10;1.00
10304;DHT22;5197;48.152;8.590;2022-09-21T14:08:37;15.80;1.00
10304;DHT22;5197;48.152;8.590;2022-09-21T14:27:31;15.90;1.00
10304;DHT22;5197;48.152;8.590;2022-09-21T14:30:18;15.90;1.00
10304;DHT22;5197;48.152;8.590;2022-09-21T14:35:32;16.00;1.00
10304;DHT22;5197;48.152;8.590;2022-09-21T14:40:53;15.80;1.00
10304;DHT22;5197;48.152;8.590;2022-09-21T14:43:33;15.60;1.00
10304;DHT22;5197;48.152;8.590;2022-09-21T14:48:53;15.00;1.00
10304;DHT22;5197;48.152;8.590;2022-09-21T14:54:33;14.60;1.00
10304;DHT22;5197;48.152;8.590;2022-09-21T14:57:13;14.60;1.00
10304;DHT22;5197;48.152;8.590;2022-09-21T15:02:29;14.90;1.00
10304;DHT22;5197;48.152;8.590;2022-09-21T15:11:36;15.20;1.00
10304;DHT22;5197;48.152;8.590;2022-09-21T15:16:53;15.50;1.00
10304;DHT22;5197;48.152;8.590;2022-09-21T15:19:28;15.60;1.00
10304;DHT22;5197;48.152;8.590;2022-09-21T15:22:16;15.60;1.00
10304;DHT22;5197;48.152;8.590;2022-09-21T15:24:52;15.60;1.00
10304;DHT22;5197;48.152;8.590;2022-09-21T15:27:26;15.60;1.00
10304;DHT22;5197;48.152;8.590;2022-09-21T15:29:54;15.60;1.00
10304;DHT22;5197;48.152;8.590;2022-09-21T15:35:00;15.50;1.00
10304;DHT22;5197;48.152;8.590;2022-09-21T15:37:28;15.60;1.00
10304;DHT22;5197;48.152;8.590;2022-09-21T15:40:01;15.60;1.00
10304;DHT22;5197;48.152;8.590;2022-09-21T15:42:29;15.50;1.00
10304;DHT22;5197;48.152;8.590;2022-09-21T15:45:17;15.60;1.00
10304;DHT22;5197;48.152;8.590;2022-09-21T15:47:44;15.50;1.00
10304;DHT22;5197;48.152;8.590;2022-09-21T15:50:13;15.50;1.00
10304;DHT22;5197;48.152;8.590;2022-09-21T15:53:14;15.50;1.00
10304;DHT22;5197;48.152;8.590;2022-09-21T15:55:33;15.60;1.00
10304;DHT22;5197;48.152;8.590;2022-09-21T15:58:01;15.60;1.00
10304;DHT22;5197;48.152;8.590;2022-09-21T16:00:32;15.50;1.00
10304;DHT22;5197;48.152;8.590;2022-09-21T16:03:15;15.40;1.00
10304;DHT22;5197;48.152;8.590;2022-09-21T16:05:50;15.40;1.00
10304;DHT22;5197;48.152;8.590;2022-09-21T16:10:45;15.50;1.00
10304;DHT22;5197;48.152;8.590;2022-09-21T16:16:09;15.50;1.00
10304;DHT22;5197;48.152;8.590;2022-09-21T16:18:51;15.30;1.00
10304;DHT22;5197;48.152;8.590;2022-09-21T16:21:31;15.30;1.00
10304;DHT22;5197;48.152;8.590;2022-09-21T16:24:15;15.40;1.00
10304;DHT22;5197;48.152;8.590;2022-09-21T16:26:59;15.30;1.00
10304;DHT22;5197;48.152;8.590;2022-09-21T16:29:37;15.10;1.00
10304;DHT22;5197;48.152;8.590;2022-09-21T16:34:47;15.10;1.00
10304;DHT22;5197;48.152;8.590;2022-09-21T16:37:20;15.00;1.00
10304;DHT22;5197;48.152;8.590;2022-09-21T16:39:52;15.10;1.00
10304;DHT22;5197;48.152;8.590;2022-09-21T16:42:20;15.10;1.00
10304;DHT22;5197;48.152;8.590;2022-09-21T16:44:48;15.10;1.00
10304;DHT22;5197;48.152;8.590;2022-09-21T16:47:20;15.00;1.00
10304;DHT22;5197;48.152;8.590;2022-09-21T16:49:56;15.00;1.00
10304;DHT22;5197;48.152;8.590;2022-09-21T16:52:27;15.00;1.00
10304;DHT22;5197;48.152;8.590;2022-09-21T16:54:55;15.00;1.00
10304;DHT22;5197;48.152;8.590;2022-09-21T16:57:23;14.90;1.00
10304;DHT22;5197;48.152;8.590;2022-09-21T16:59:50;14.80;1.00
10304;DHT22;5197;48.152;8.590;2022-09-21T17:02:17;14.70;1.00
10304;DHT22;5197;48.152;8.590;2022-09-21T17:04:44;14.90;1.00
10304;DHT22;5197;48.152;8.590;2022-09-21T17:07:14;14.50;1.00
10304;DHT22;5197;48.152;8.590;2022-09-21T17:09:43;14.40;1.00
10304;DHT22;5197;48.152;8.590;2022-09-21T17:12:15;14.30;1.00
10304;DHT22;5197;48.152;8.590;2022-09-21T17:14:43;14.20;1.00
10304;DHT22;5197;48.152;8.590;2022-09-21T17:17:20;14.20;1.00
10304;DHT22;5197;48.152;8.590;2022-09-21T17:19:49;14.10;1.00
10304;DHT22;5197;48.152;8.590;2022-09-21T17:22:17;13.90;1.00
10304;DHT22;5197;48.152;8.590;2022-09-21T17:24:49;13.80;1.00
10304;DHT22;5197;48.152;8.590;2022-09-21T17:27:20;13.80;1.00
10304;DHT22;5197;48.152;8.590;2022-09-21T17:29:49;13.70;1.00
10304;DHT22;5197;48.152;8.590;2022-09-21T17:32:19;13.60;1.00
10304;DHT22;5197;48.152;8.590;2022-09-21T17:35:12;13.50;1.00
10304;DHT22;5197;48.152;8.590;2022-09-21T17:37:40;13.50;1.00
10304;DHT22;5197;48.152;8.590;2022-09-21T17:40:07;13.40;1.00
10304;DHT22;5197;48.152;8.590;2022-09-21T17:42:41;13.40;1.00
10304;DHT22;5197;48.152;8.590;2022-09-21T17:47:53;13.20;1.00
10304;DHT22;5197;48.152;8.590;2022-09-21T17:50:24;13.20;1.00
10304;DHT22;5197;48.152;8.590;2022-09-21T17:52:53;13.20;1.00
10304;DHT22;5197;48.152;8.590;2022-09-21T17:55:56;13.10;1.00
10304;DHT22;5197;48.152;8.590;2022-09-21T18:03:45;12.70;1.00
10304;DHT22;5197;48.152;8.590;2022-09-21T18:06:13;12.60;1.00
10304;DHT22;5197;48.152;8.590;2022-09-21T18:08:41;12.50;1.00
10304;DHT22;5197;48.152;8.590;2022-09-21T18:25:25;11.80;1.00
10304;DHT22;5197;48.152;8.590;2022-09-21T18:27:56;11.80;1.00
10304;DHT22;5197;48.152;8.590;2022-09-21T18:30:24;11.70;1.00
10304;DHT22;5197;48.152;8.590;2022-09-21T18:44:23;11.40;1.00
10304;DHT22;5197;48.152;8.590;2022-09-21T18:47:47;11.30;1.00
10304;DHT22;5197;48.152;8.590;2022-09-21T18:50:06;11.20;1.00
10304;DHT22;5197;48.152;8.590;2022-09-21T18:52:59;11.10;1.00
10304;DHT22;5197;48.152;8.590;2022-09-21T18:55:29;11.10;1.00
10304;DHT22;5197;48.152;8.590;2022-09-21T18:57:59;11.00;1.00
10304;DHT22;5197;48.152;8.590;2022-09-21T19:00:28;10.90;1.00
10304;DHT22;5197;48.152;8.590;2022-09-21T19:03:03;10.80;1.00
10304;DHT22;5197;48.152;8.590;2022-09-21T19:10:56;10.50;1.00
10304;DHT22;5197;48.152;8.590;2022-09-21T19:24:17;10.20;1.00
10304;DHT22;5197;48.152;8.590;2022-09-21T19:32:48;10.00;1.00
10304;DHT22;5197;48.152;8.590;2022-09-21T19:37:49;9.90;1.00
10304;DHT22;5197;48.152;8.590;2022-09-21T19:40:20;9.90;1.00
10304;DHT22;5197;48.152;8.590;2022-09-21T19:43:02;9.80;1.00
10304;DHT22;5197;48.152;8.590;2022-09-21T19:46:31;9.80;1.00
10304;DHT22;5197;48.152;8.590;2022-09-21T19:48:42;9.80;1.00
10304;DHT22;5197;48.152;8.590;2022-09-21T19:54:00;9.70;1.00
10304;DHT22;5197;48.152;8.590;2022-09-21T19:56:48;9.60;1.00
10304;DHT22;5197;48.152;8.590;2022-09-21T19:59:34;9.60;1.00
10304;DHT22;5197;48.152;8.590;2022-09-21T20:02:18;9.50;1.00
10304;DHT22;5197;48.152;8.590;2022-09-21T20:05:03;9.50;1.00
10304;DHT22;5197;48.152;8.590;2022-09-21T20:07:46;9.50;1.00
10304;DHT22;5197;48.152;8.590;2022-09-21T20:13:19;9.40;1.00
10304;DHT22;5197;48.152;8.590;2022-09-21T20:18:59;9.30;1.00
10304;DHT22;5197;48.152;8.590;2022-09-21T20:21:38;9.30;1.00
10304;DHT22;5197;48.152;8.590;2022-09-21T20:27:01;9.20;1.00
10304;DHT22;5197;48.152;8.590;2022-09-21T20:29:29;9.10;1.00
10304;DHT22;5197;48.152;8.590;2022-09-21T20:31:56;9.10;1.00
10304;DHT22;5197;48.152;8.590;2022-09-21T20:34:25;9.10;1.00
10304;DHT22;5197;48.152;8.590;2022-09-21T20:36:53;9.10;1.00
10304;DHT22;5197;48.152;8.590;2022-09-21T20:39:20;9.00;1.00
10304;DHT22;5197;48.152;8.590;2022-09-21T20:41:47;9.00;1.00
10304;DHT22;5197;48.152;8.590;2022-09-21T20:44:15;9.00;1.00
10304;DHT22;5197;48.152;8.590;2022-09-21T20:46:42;9.00;1.00
10304;DHT22;5197;48.152;8.590;2022-09-21T20:49:10;9.00;1.00
10304;DHT22;5197;48.152;8.590;2022-09-21T20:51:40;9.10;1.00
10304;DHT22;5197;48.152;8.590;2022-09-21T20:54:08;8.90;1.00
10304;DHT22;5197;48.152;8.590;2022-09-21T20:56:34;8.80;1.00
10304;DHT22;5197;48.152;8.590;2022-09-21T20:59:02;8.80;1.00
10304;DHT22;5197;48.152;8.590;2022-09-21T21:01:29;8.80;1.00
10304;DHT22;5197;48.152;8.590;2022-09-21T21:03:56;8.70;1.00
10304;DHT22;5197;48.152;8.590;2022-09-21T21:06:29;8.70;1.00
10304;DHT22;5197;48.152;8.590;2022-09-21T21:09:00;8.60;1.00
10304;DHT22;5197;48.152;8.590;2022-09-21T21:11:27;8.60;1.00
10304;DHT22;5197;48.152;8.590;2022-09-21T21:13:55;8.50;1.00
10304;DHT22;5197;48.152;8.590;2022-09-21T21:16:22;8.50;1.00
10304;DHT22;5197;48.152;8.590;2022-09-21T21:18:49;8.40;1.00
10304;DHT22;5197;48.152;8.590;2022-09-21T21:21:16;8.40;1.00
10304;DHT22;5197;48.152;8.590;2022-09-21T21:23:48;8.30;1.00
10304;DHT22;5197;48.152;8.590;2022-09-21T21:26:34;8.30;1.00
10304;DHT22;5197;48.152;8.590;2022-09-21T21:29:21;8.20;1.00
10304;DHT22;5197;48.152;8.590;2022-09-21T21:31:48;8.20;1.00
10304;DHT22;5197;48.152;8.590;2022-09-21T21:34:15;8.20;1.00
10304;DHT22;5197;48.152;8.590;2022-09-21T21:36:42;8.20;1.00